Time;durP1;ratioP1;P1;durP2;ratioP2;P2;SDS_P1;SDS_P2;PMS_P1;PMS_P2;Temp;Humidity;BMP_temperature;BMP_pressure;BME280_temperature;BME280_humidity;BME280_pressure;Samples;Min_cycle;Max_cycle;Signal;HPM_P1;HPM_P2
2023/03/30 00:00:34;;;;;;;14.88;10.15;;;;;;;;;;5053217;28;20511;-62
2023/03/30 00:03:01;;;;;;;12.70;9.65;;;;;;;;;;5052921;28;20045;-62
2023/03/30 00:05:28;;;;;;;15.40;9.52;;;;;;;;;;5053620;28;20495;-62
2023/03/30 00:07:54;;;;;;;11.95;8.95;;;;;;;;;;5053445;28;20041;-62
2023/03/30 00:10:20;;;;;;;11.73;8.98;;;;;;;;;;5052584;28;20568;-62
2023/03/30 00:12:49;;;;;;;11.10;8.57;;;;;;;;;;5053521;28;20131;-62
2023/03/30 00:15:16;;;;;;;13.27;8.73;;;;;;;;;;5053409;28;20040;-62
2023/03/30 00:17:42;;;;;;;11.93;8.23;;;;;;;;;;5052673;28;20073;-62
2023/03/30 00:20:10;;;;;;;12.82;8.63;;;;;;;;;;5052958;28;20045;-62
2023/03/30 00:22:43;;;;;;;10.95;8.52;;;;;;;;;;5052982;28;20435;-62
2023/03/30 00:25:11;;;;;;;13.73;7.72;;;;;;;;;;5052296;28;20036;-62
2023/03/30 00:27:37;;;;;;;12.02;7.75;;;;;;;;;;5053093;28;20033;-62
2023/03/30 00:30:07;;;;;;;12.93;8.05;;;;;;;;;;5052494;28;20049;-62
2023/03/30 00:32:33;;;;;;;16.40;7.78;;;;;;;;;;5052256;28;20445;-62
2023/03/30 00:35:00;;;;;;;11.65;7.47;;;;;;;;;;5052999;28;20045;-62
2023/03/30 00:37:26;;;;;;;13.57;7.93;;;;;;;;;;5052896;28;20048;-62
2023/03/30 00:39:53;;;;;;;12.93;7.90;;;;;;;;;;5051682;28;20128;-62
2023/03/30 00:42:20;;;;;;;14.13;7.60;;;;;;;;;;5052536;28;20095;-62
2023/03/30 00:45:05;;;;;;;14.52;7.70;;;;;;;;;;5051909;28;20076;-62
2023/03/30 00:47:32;;;;;;;10.63;7.32;;;;;;;;;;5052027;28;20150;-62
2023/03/30 00:49:58;;;;;;;11.40;7.40;;;;;;;;;;5052305;28;20036;-62
2023/03/30 00:52:26;;;;;;;11.80;6.60;;;;;;;;;;5052517;28;20090;-62
2023/03/30 00:54:53;;;;;;;11.15;6.25;;;;;;;;;;5051932;28;20852;-62
2023/03/30 00:57:22;;;;;;;12.50;6.82;;;;;;;;;;5052582;28;20124;-62
2023/03/30 00:59:49;;;;;;;12.57;7.05;;;;;;;;;;5051993;28;20045;-62
2023/03/30 01:02:17;;;;;;;10.63;7.03;;;;;;;;;;5051924;28;20853;-62
2023/03/30 01:04:44;;;;;;;11.45;7.32;;;;;;;;;;5052442;28;20048;-62
2023/03/30 01:07:11;;;;;;;8.95;6.65;;;;;;;;;;5052317;28;20080;-62
2023/03/30 01:09:38;;;;;;;12.15;7.15;;;;;;;;;;5051448;28;20080;-62
2023/03/30 01:12:04;;;;;;;9.20;6.60;;;;;;;;;;5052057;28;20037;-62
2023/03/30 01:14:31;;;;;;;14.88;6.38;;;;;;;;;;5051808;28;20094;-62
2023/03/30 01:17:17;;;;;;;12.18;7.10;;;;;;;;;;5051623;28;20388;-62
2023/03/30 01:19:52;;;;;;;13.13;6.80;;;;;;;;;;5047579;28;20060;-62
2023/03/30 01:22:28;;;;;;;12.00;6.60;;;;;;;;;;5051512;28;20052;-62
2023/03/30 01:25:03;;;;;;;10.95;6.57;;;;;;;;;;5051097;28;20040;-62
2023/03/30 01:27:50;;;;;;;10.07;6.05;;;;;;;;;;5032050;28;20236;-62
2023/03/30 01:30:26;;;;;;;12.25;6.05;;;;;;;;;;5017984;28;20049;-62
2023/03/30 01:33:24;;;;;;;10.88;5.40;;;;;;;;;;5031398;28;20632;-62
2023/03/30 01:35:51;;;;;;;11.18;5.97;;;;;;;;;;4987783;28;20049;-62
2023/03/30 01:38:17;;;;;;;14.15;6.38;;;;;;;;;;5031725;28;20381;-62
2023/03/30 01:40:58;;;;;;;12.00;6.18;;;;;;;;;;5030903;28;20114;-62
2023/03/30 01:43:27;;;;;;;11.93;6.45;;;;;;;;;;5031705;28;20514;-62
2023/03/30 01:46:12;;;;;;;10.82;6.05;;;;;;;;;;5031883;28;20124;-62
2023/03/30 01:48:44;;;;;;;11.77;5.53;;;;;;;;;;5043777;28;20098;-62
2023/03/30 01:51:21;;;;;;;12.55;6.50;;;;;;;;;;5051616;28;20107;-62
2023/03/30 01:53:53;;;;;;;9.13;6.07;;;;;;;;;;5050961;28;20434;-62
2023/03/30 01:56:22;;;;;;;9.20;5.80;;;;;;;;;;5050575;28;20098;-62
2023/03/30 01:58:48;;;;;;;11.27;5.82;;;;;;;;;;5051354;28;20060;-62
2023/03/30 02:01:16;;;;;;;9.10;5.90;;;;;;;;;;5050372;28;20041;-62
2023/03/30 02:03:44;;;;;;;10.95;6.15;;;;;;;;;;5051210;28;20102;-62
2023/03/30 02:06:23;;;;;;;11.30;5.40;;;;;;;;;;5051148;28;20037;-62
2023/03/30 02:08:50;;;;;;;10.63;5.60;;;;;;;;;;5050525;28;20048;-62
2023/03/30 02:11:16;;;;;;;13.23;5.45;;;;;;;;;;5050827;28;20065;-62
2023/03/30 02:13:43;;;;;;;11.48;5.97;;;;;;;;;;5050933;28;20095;-62
2023/03/30 02:16:14;;;;;;;10.57;5.18;;;;;;;;;;5050395;28;20037;-62
2023/03/30 02:18:40;;;;;;;11.35;5.78;;;;;;;;;;5050910;28;20111;-62
2023/03/30 02:21:06;;;;;;;14.60;5.82;;;;;;;;;;5050719;28;20063;-62
2023/03/30 02:23:35;;;;;;;7.10;4.93;;;;;;;;;;5049768;28;20049;-62
2023/03/30 02:26:01;;;;;;;10.07;5.78;;;;;;;;;;5050706;28;20045;-62
2023/03/30 02:28:27;;;;;;;10.30;5.93;;;;;;;;;;5050838;28;20071;-62
2023/03/30 02:30:53;;;;;;;10.15;5.63;;;;;;;;;;5050053;28;20044;-62
2023/03/30 02:33:25;;;;;;;9.00;5.72;;;;;;;;;;5050687;28;20427;-62
2023/03/30 02:35:54;;;;;;;10.55;5.40;;;;;;;;;;5050803;28;20090;-62
2023/03/30 02:38:36;;;;;;;10.32;5.85;;;;;;;;;;5049962;28;20059;-62
2023/03/30 02:41:11;;;;;;;10.00;5.32;;;;;;;;;;5050630;28;20080;-62
2023/03/30 02:43:58;;;;;;;15.35;5.50;;;;;;;;;;5050638;28;20059;-62
2023/03/30 02:46:38;;;;;;;19.45;4.95;;;;;;;;;;5050064;28;20528;-62
2023/03/30 02:49:10;;;;;;;9.15;4.72;;;;;;;;;;5050509;28;20545;-62
2023/03/30 02:51:54;;;;;;;9.55;4.65;;;;;;;;;;5050708;28;20044;-62
2023/03/30 02:54:23;;;;;;;8.70;4.70;;;;;;;;;;5050130;28;20036;-62
2023/03/30 02:57:15;;;;;;;7.72;4.78;;;;;;;;;;5050461;28;20049;-62
2023/03/30 02:59:44;;;;;;;11.38;4.55;;;;;;;;;;5048875;28;20048;-62
2023/03/30 03:02:16;;;;;;;11.02;4.82;;;;;;;;;;5049854;28;20053;-62
2023/03/30 03:04:45;;;;;;;;;;;;;;;;;;5050925;28;20037;-62
2023/03/30 03:07:12;;;;;;;9.13;4.10;;;;;;;;;;5034612;28;19921;-62
2023/03/30 03:09:38;;;;;;;12.43;4.22;;;;;;;;;;5053458;28;20045;-62
2023/03/30 03:12:04;;;;;;;10.32;4.20;;;;;;;;;;5054514;28;20033;-62
2023/03/30 03:14:33;;;;;;;11.38;4.18;;;;;;;;;;5054572;28;20037;-62
2023/03/30 03:16:59;;;;;;;9.13;4.00;;;;;;;;;;5035986;28;20760;-62
2023/03/30 03:19:25;;;;;;;11.02;4.10;;;;;;;;;;5054402;28;20045;-62
2023/03/30 03:21:51;;;;;;;9.57;4.45;;;;;;;;;;5036012;28;20388;-62
2023/03/30 03:24:17;;;;;;;5.53;3.70;;;;;;;;;;5053704;28;20045;-62
2023/03/30 03:26:44;;;;;;;5.50;3.67;;;;;;;;;;5054048;28;20418;-62
2023/03/30 03:29:10;;;;;;;8.00;3.88;;;;;;;;;;5054156;28;20060;-62
2023/03/30 03:31:36;;;;;;;9.52;3.80;;;;;;;;;;5053214;28;20068;-62
2023/03/30 03:34:03;;;;;;;8.30;3.58;;;;;;;;;;5053843;28;20050;-62
2023/03/30 03:36:29;;;;;;;8.88;3.55;;;;;;;;;;5054150;28;20041;-62
2023/03/30 03:38:55;;;;;;;7.15;3.80;;;;;;;;;;5053357;28;20163;-62
2023/03/30 03:41:22;;;;;;;7.18;3.95;;;;;;;;;;5053607;28;20040;-62
2023/03/30 03:43:48;;;;;;;7.28;3.67;;;;;;;;;;5053813;28;20098;-62
2023/03/30 03:46:14;;;;;;;9.23;3.33;;;;;;;;;;5053120;28;20383;-62
2023/03/30 03:48:41;;;;;;;7.00;3.75;;;;;;;;;;5053560;28;20045;-62
2023/03/30 03:51:08;;;;;;;9.50;3.20;;;;;;;;;;5053712;28;20052;-62
2023/03/30 03:53:34;;;;;;;7.45;3.25;;;;;;;;;;5053155;28;20095;-62
2023/03/30 03:56:01;;;;;;;7.35;3.35;;;;;;;;;;5053297;28;20132;-62
2023/03/30 03:58:27;;;;;;;7.97;3.40;;;;;;;;;;5053636;28;20071;-62
2023/03/30 04:00:57;;;;;;;9.32;3.90;;;;;;;;;;5052804;28;20045;-62
2023/03/30 04:03:23;;;;;;;8.75;3.25;;;;;;;;;;5053381;28;20381;-62
2023/03/30 04:05:49;;;;;;;6.13;3.33;;;;;;;;;;5035697;28;20045;-62
2023/03/30 04:08:16;;;;;;;7.88;3.10;;;;;;;;;;5052714;28;20041;-62
2023/03/30 04:10:43;;;;;;;7.30;3.08;;;;;;;;;;5053217;28;20490;-62
2023/03/30 04:13:09;;;;;;;8.48;3.00;;;;;;;;;;5053273;28;20128;-62
2023/03/30 04:15:35;;;;;;;8.77;3.25;;;;;;;;;;5052758;28;20098;-62
2023/03/30 04:18:03;;;;;;;9.73;3.17;;;;;;;;;;5052142;28;20052;-62
2023/03/30 04:20:29;;;;;;;9.48;3.00;;;;;;;;;;5035065;28;20748;-62
2023/03/30 04:22:56;;;;;;;7.05;2.95;;;;;;;;;;5052206;28;20053;-62
2023/03/30 04:25:26;;;;;;;8.27;2.88;;;;;;;;;;5052755;28;20049;-62
2023/03/30 04:27:54;;;;;;;8.95;3.10;;;;;;;;;;5052951;28;20120;-62
2023/03/30 04:30:21;;;;;;;13.30;3.35;;;;;;;;;;5052350;28;20072;-62
2023/03/30 04:33:01;;;;;;;8.85;3.13;;;;;;;;;;5052937;28;20045;-62
2023/03/30 04:35:28;;;;;;;10.10;3.15;;;;;;;;;;5052788;28;20098;-62
2023/03/30 04:37:54;;;;;;;10.32;3.28;;;;;;;;;;5052116;28;20429;-62
2023/03/30 04:40:20;;;;;;;8.85;3.00;;;;;;;;;;5053054;28;20044;-62
2023/03/30 04:42:48;;;;;;;7.65;3.22;;;;;;;;;;5053224;28;20041;-62
2023/03/30 04:45:17;;;;;;;13.15;3.60;;;;;;;;;;5052438;28;20068;-62
2023/03/30 04:47:44;;;;;;;8.65;3.17;;;;;;;;;;5052983;28;20040;-62
2023/03/30 04:50:10;;;;;;;13.93;3.60;;;;;;;;;;5052961;28;20052;-62
2023/03/30 04:52:36;;;;;;;10.70;3.58;;;;;;;;;;5052340;28;20402;-62
2023/03/30 04:55:02;;;;;;;11.07;3.72;;;;;;;;;;5051414;28;20045;-62
2023/03/30 04:57:29;;;;;;;6.82;3.95;;;;;;;;;;5052504;28;20083;-62
2023/03/30 04:59:55;;;;;;;10.20;3.92;;;;;;;;;;5051940;28;20052;-63
2023/03/30 05:02:21;;;;;;;11.02;4.03;;;;;;;;;;5052350;28;20041;-62
2023/03/30 05:04:47;;;;;;;12.43;4.22;;;;;;;;;;5048328;28;20044;-62
2023/03/30 05:07:13;;;;;;;9.18;4.10;;;;;;;;;;5051099;28;20041;-62
2023/03/30 05:09:40;;;;;;;9.23;4.57;;;;;;;;;;5052062;28;20091;-61
2023/03/30 05:12:06;;;;;;;10.73;4.75;;;;;;;;;;5052000;28;20116;-61
2023/03/30 05:14:32;;;;;;;11.07;4.05;;;;;;;;;;5051543;28;20123;-61
2023/03/30 05:16:58;;;;;;;11.57;4.05;;;;;;;;;;5052464;28;20037;-62
2023/03/30 05:19:24;;;;;;;18.48;3.97;;;;;;;;;;5051416;28;20080;-62
2023/03/30 05:21:50;;;;;;;9.35;4.13;;;;;;;;;;5051224;28;20432;-62
2023/03/30 05:24:16;;;;;;;6.38;3.63;;;;;;;;;;5051992;28;20114;-62
2023/03/30 05:26:42;;;;;;;8.70;3.72;;;;;;;;;;5051930;28;20037;-61
2023/03/30 05:29:08;;;;;;;7.68;3.92;;;;;;;;;;5051001;28;20106;-61
2023/03/30 05:31:35;;;;;;;6.28;3.40;;;;;;;;;;5051681;28;20041;-61
2023/03/30 05:34:01;;;;;;;10.60;3.83;;;;;;;;;;5051757;28;20045;-62
2023/03/30 05:36:27;;;;;;;9.80;3.67;;;;;;;;;;5051284;28;20049;-62
2023/03/30 05:38:53;;;;;;;8.05;3.42;;;;;;;;;;5051319;28;20043;-62
2023/03/30 05:41:19;;;;;;;10.43;3.70;;;;;;;;;;5051305;28;20048;-61
2023/03/30 05:43:46;;;;;;;9.95;3.50;;;;;;;;;;5051126;28;20037;-61
2023/03/30 05:46:12;;;;;;;8.00;3.47;;;;;;;;;;5051534;28;20041;-62
2023/03/30 05:48:38;;;;;;;7.63;3.15;;;;;;;;;;5051732;28;20045;-62
2023/03/30 05:51:04;;;;;;;12.77;3.90;;;;;;;;;;5050824;28;20052;-62
2023/03/30 05:53:30;;;;;;;8.15;3.45;;;;;;;;;;5051301;28;20067;-62
2023/03/30 05:55:56;;;;;;;10.10;4.05;;;;;;;;;;5050782;28;20037;-63
2023/03/30 05:58:22;;;;;;;9.07;3.65;;;;;;;;;;5050519;28;20102;-64
2023/03/30 06:00:48;;;;;;;8.90;3.17;;;;;;;;;;5050734;28;20124;-64
2023/03/30 06:03:14;;;;;;;6.75;3.00;;;;;;;;;;5050682;28;20052;-65
2023/03/30 06:05:42;;;;;;;10.57;3.30;;;;;;;;;;5050896;28;20542;-64
2023/03/30 06:08:09;;;;;;;7.07;2.95;;;;;;;;;;5050931;28;20075;-65
2023/03/30 06:10:35;;;;;;;5.72;2.95;;;;;;;;;;5049970;28;20092;-63
2023/03/30 06:13:01;;;;;;;8.65;3.30;;;;;;;;;;5033007;28;20505;-63
2023/03/30 06:15:28;;;;;;;10.73;3.22;;;;;;;;;;5050503;28;20460;-64
2023/03/30 06:17:54;;;;;;;8.48;3.47;;;;;;;;;;5050196;28;20419;-64
2023/03/30 06:20:20;;;;;;;8.63;3.47;;;;;;;;;;5049851;28;20036;-64
2023/03/30 06:22:50;;;;;;;13.07;3.65;;;;;;;;;;5050410;28;20060;-64
2023/03/30 06:25:18;;;;;;;8.75;3.58;;;;;;;;;;5050804;28;20056;-64
2023/03/30 06:27:47;;;;;;;7.93;3.72;;;;;;;;;;5050237;28;20443;-64
2023/03/30 06:30:14;;;;;;;10.27;3.50;;;;;;;;;;5042121;28;20049;-64
2023/03/30 06:32:40;;;;;;;9.23;3.60;;;;;;;;;;5049456;28;20051;-63
2023/03/30 06:35:06;;;;;;;10.88;4.10;;;;;;;;;;5042140;28;20090;-63
2023/03/30 06:37:35;;;;;;;12.00;3.33;;;;;;;;;;5048865;28;20094;-63
2023/03/30 06:40:06;;;;;;;9.35;4.22;;;;;;;;;;5044942;28;20171;-62
2023/03/30 06:42:32;;;;;;;11.03;4.00;;;;;;;;;;5048725;28;20744;-63
2023/03/30 06:44:58;;;;;;;10.15;3.85;;;;;;;;;;5049235;28;20275;-64
2023/03/30 06:47:24;;;;;;;9.18;3.63;;;;;;;;;;5049624;28;20375;-64
2023/03/30 06:49:50;;;;;;;9.40;4.38;;;;;;;;;;5048452;28;20040;-63
2023/03/30 06:52:16;;;;;;;9.93;4.47;;;;;;;;;;5049922;28;20037;-63
2023/03/30 06:54:42;;;;;;;8.85;4.10;;;;;;;;;;5049363;28;20381;-64
2023/03/30 06:57:08;;;;;;;7.82;3.95;;;;;;;;;;5046749;28;20088;-64
2023/03/30 06:59:35;;;;;;;12.27;3.20;;;;;;;;;;5040607;28;20121;-64
2023/03/30 07:02:02;;;;;;;9.40;3.20;;;;;;;;;;5045331;28;20096;-65
2023/03/30 07:04:28;;;;;;;13.15;4.18;;;;;;;;;;5049329;28;20505;-63
2023/03/30 07:06:58;;;;;;;13.02;3.50;;;;;;;;;;5048676;28;20048;-64
2023/03/30 07:09:25;;;;;;;15.60;3.67;;;;;;;;;;5049069;28;20045;-64
2023/03/30 07:11:51;;;;;;;14.52;3.20;;;;;;;;;;5048751;28;20049;-64
2023/03/30 07:14:17;;;;;;;15.40;3.95;;;;;;;;;;5048056;28;20539;-64
2023/03/30 07:16:43;;;;;;;22.40;3.42;;;;;;;;;;5045148;28;20045;-64
2023/03/30 07:19:10;;;;;;;12.57;2.88;;;;;;;;;;5048483;28;20080;-63
2023/03/30 07:21:36;;;;;;;13.10;3.47;;;;;;;;;;5048182;28;20124;-64
2023/03/30 07:24:02;;;;;;;16.15;3.33;;;;;;;;;;5047917;28;20535;-64
2023/03/30 07:26:28;;;;;;;13.98;3.13;;;;;;;;;;5048299;28;20041;-64
2023/03/30 07:28:55;;;;;;;14.55;3.30;;;;;;;;;;5048343;28;20037;-63
2023/03/30 07:31:23;;;;;;;16.70;3.38;;;;;;;;;;5048094;28;20052;-63
2023/03/30 07:33:49;;;;;;;21.45;4.32;;;;;;;;;;5046201;28;20067;-64
2023/03/30 07:36:15;;;;;;;17.38;2.92;;;;;;;;;;5047888;28;20036;-63
2023/03/30 07:38:41;;;;;;;19.73;3.28;;;;;;;;;;5048667;28;20459;-63
2023/03/30 07:41:11;;;;;;;19.38;3.55;;;;;;;;;;5048784;28;20441;-63
2023/03/30 07:43:40;;;;;;;18.08;3.78;;;;;;;;;;5048413;28;20115;-63
2023/03/30 07:46:08;;;;;;;23.80;3.97;;;;;;;;;;5048610;28;20044;-63
2023/03/30 07:48:34;;;;;;;18.73;3.60;;;;;;;;;;5048919;28;20051;-63
2023/03/30 07:51:10;;;;;;;16.63;3.05;;;;;;;;;;5048791;28;20444;-64
2023/03/30 07:53:37;;;;;;;15.15;3.80;;;;;;;;;;5023542;28;20099;-65
2023/03/30 07:56:03;;;;;;;20.13;4.15;;;;;;;;;;5045472;28;20049;-64
2023/03/30 07:58:30;;;;;;;15.88;2.97;;;;;;;;;;5051427;28;20051;-64
2023/03/30 08:00:56;;;;;;;17.33;3.13;;;;;;;;;;5051896;28;20041;-64
2023/03/30 08:03:24;;;;;;;16.88;4.05;;;;;;;;;;5052128;28;20094;-64
2023/03/30 08:06:03;;;;;;;18.35;3.08;;;;;;;;;;5050708;28;20048;-64
2023/03/30 08:08:29;;;;;;;18.27;4.43;;;;;;;;;;5052433;28;20116;-64
2023/03/30 08:10:55;;;;;;;17.48;3.25;;;;;;;;;;5043829;28;20041;-64
2023/03/30 08:13:22;;;;;;;23.05;4.22;;;;;;;;;;5051650;28;20047;-64
2023/03/30 08:15:48;;;;;;;20.00;3.78;;;;;;;;;;5051672;28;20075;-64
2023/03/30 08:18:14;;;;;;;22.15;3.80;;;;;;;;;;5051971;28;20610;-64
2023/03/30 08:20:41;;;;;;;19.42;4.03;;;;;;;;;;5051241;28;20043;-65
2023/03/30 08:23:08;;;;;;;22.73;3.90;;;;;;;;;;5052364;28;20461;-65
2023/03/30 08:25:34;;;;;;;17.45;3.90;;;;;;;;;;5051737;28;20491;-64
2023/03/30 08:28:01;;;;;;;20.90;4.70;;;;;;;;;;5051213;28;20041;-64
2023/03/30 08:30:27;;;;;;;23.65;4.03;;;;;;;;;;5048120;28;20045;-64
2023/03/30 08:32:53;;;;;;;21.15;3.67;;;;;;;;;;5052088;28;20485;-64
2023/03/30 08:35:20;;;;;;;21.88;4.47;;;;;;;;;;5046370;28;20048;-64
2023/03/30 08:37:47;;;;;;;20.50;4.00;;;;;;;;;;5051661;28;20052;-64
2023/03/30 08:40:14;;;;;;;23.95;4.70;;;;;;;;;;5051440;28;20041;-64
2023/03/30 08:43:03;;;;;;;20.20;3.80;;;;;;;;;;5050634;28;20376;-64
2023/03/30 08:45:37;;;;;;;27.15;4.50;;;;;;;;;;5051661;28;20041;-63
2023/03/30 08:48:05;;;;;;;23.75;4.18;;;;;;;;;;5051538;28;20040;-64
2023/03/30 08:50:31;;;;;;;21.67;3.90;;;;;;;;;;5050473;28;20053;-63
2023/03/30 08:52:57;;;;;;;27.02;4.20;;;;;;;;;;5051595;28;20056;-64
2023/03/30 08:55:50;;;;;;;25.75;4.68;;;;;;;;;;5051429;28;20479;-64
2023/03/30 08:58:25;;;;;;;32.47;5.07;;;;;;;;;;5049232;28;20063;-64
2023/03/30 09:01:05;;;;;;;25.13;4.68;;;;;;;;;;5050923;28;20077;-64
2023/03/30 09:03:38;;;;;;;26.92;4.35;;;;;;;;;;5050639;28;20120;-64
2023/03/30 09:06:04;;;;;;;;;;;;;;;;;;5051296;28;20041;-64
2023/03/30 09:08:30;;;;;;;20.20;3.80;;;;;;;;;;5051424;28;20041;-65
2023/03/30 09:11:00;;;;;;;21.58;3.92;;;;;;;;;;5050658;28;20052;-64
2023/03/30 09:13:32;;;;;;;29.83;5.00;;;;;;;;;;5051154;28;20067;-65
2023/03/30 09:16:17;;;;;;;22.40;4.10;;;;;;;;;;5051190;28;20053;-64
2023/03/30 09:18:45;;;;;;;20.20;3.72;;;;;;;;;;5050380;28;20059;-64
2023/03/30 09:21:12;;;;;;;21.00;4.40;;;;;;;;;;5050940;28;20041;-64
2023/03/30 09:23:39;;;;;;;19.35;3.53;;;;;;;;;;5050409;28;20080;-64
2023/03/30 09:26:08;;;;;;;21.63;3.80;;;;;;;;;;5050382;28;20041;-64
2023/03/30 09:28:41;;;;;;;18.58;3.78;;;;;;;;;;5051109;28;20084;-64
2023/03/30 09:31:14;;;;;;;20.33;3.50;;;;;;;;;;5050944;28;20095;-64
2023/03/30 09:33:42;;;;;;;19.48;3.25;;;;;;;;;;5049704;28;20383;-63
2023/03/30 09:36:08;;;;;;;19.63;3.17;;;;;;;;;;5049229;28;20045;-64
2023/03/30 09:38:36;;;;;;;16.60;3.67;;;;;;;;;;5050618;28;20767;-63
2023/03/30 09:41:06;;;;;;;17.00;3.15;;;;;;;;;;5050294;28;20045;-63
2023/03/30 09:43:36;;;;;;;18.63;3.28;;;;;;;;;;5050696;28;20726;-62
2023/03/30 09:46:05;;;;;;;19.67;2.92;;;;;;;;;;5050546;28;20032;-63
2023/03/30 09:48:38;;;;;;;14.25;2.85;;;;;;;;;;5048671;28;20115;-64
2023/03/30 09:51:13;;;;;;;15.48;3.05;;;;;;;;;;5048176;28;20048;-63
2023/03/30 09:53:39;;;;;;;19.55;3.05;;;;;;;;;;5050850;28;20430;-64
2023/03/30 09:56:10;;;;;;;11.77;2.63;;;;;;;;;;5049989;28;20525;-64
2023/03/30 09:58:36;;;;;;;16.25;2.88;;;;;;;;;;5050394;28;20048;-64
2023/03/30 10:01:05;;;;;;;17.00;3.05;;;;;;;;;;5050464;28;20045;-65
2023/03/30 10:03:31;;;;;;;14.95;3.00;;;;;;;;;;5040747;28;20091;-65
2023/03/30 10:06:06;;;;;;;19.55;3.30;;;;;;;;;;5050575;28;20053;-64
2023/03/30 10:08:32;;;;;;;18.20;3.45;;;;;;;;;;5041936;28;20056;-64
2023/03/30 10:11:00;;;;;;;15.00;2.72;;;;;;;;;;5041110;28;20072;-64
2023/03/30 10:13:36;;;;;;;16.83;3.20;;;;;;;;;;5032173;28;20052;-65
2023/03/30 10:16:12;;;;;;;16.60;2.83;;;;;;;;;;5049303;28;20128;-63
2023/03/30 10:18:43;;;;;;;15.63;3.55;;;;;;;;;;5049137;28;20057;-65
2023/03/30 10:21:09;;;;;;;13.38;2.47;;;;;;;;;;5050334;28;20048;-66
2023/03/30 10:23:42;;;;;;;12.50;2.75;;;;;;;;;;5049572;28;20061;-65
2023/03/30 10:26:14;;;;;;;17.55;2.78;;;;;;;;;;5044403;28;20373;-65
2023/03/30 10:28:41;;;;;;;;;;;;;;;;;;5035066;28;20052;-65
2023/03/30 10:31:13;;;;;;;17.65;2.65;;;;;;;;;;5047484;28;19936;-64
2023/03/30 10:33:41;;;;;;;20.38;3.90;;;;;;;;;;5049458;28;20662;-65
2023/03/30 10:36:07;;;;;;;19.05;2.85;;;;;;;;;;5049876;28;20044;-65
2023/03/30 10:38:33;;;;;;;14.88;2.63;;;;;;;;;;5049708;28;20052;-65
2023/03/30 10:41:01;;;;;;;14.80;2.65;;;;;;;;;;5049341;28;20045;-62
2023/03/30 10:43:30;;;;;;;16.92;3.03;;;;;;;;;;5049823;28;20048;-64
2023/03/30 10:46:06;;;;;;;16.13;3.38;;;;;;;;;;5049889;28;20112;-64
2023/03/30 10:48:35;;;;;;;18.48;2.83;;;;;;;;;;5049083;28;20041;-64
2023/03/30 10:51:08;;;;;;;16.20;3.03;;;;;;;;;;5049913;28;20049;-65
2023/03/30 10:53:37;;;;;;;17.15;2.35;;;;;;;;;;5037394;28;20418;-65
2023/03/30 10:56:12;;;;;;;17.75;3.30;;;;;;;;;;5045035;28;20037;-65
2023/03/30 10:58:41;;;;;;;10.95;2.63;;;;;;;;;;5049956;28;20480;-65
2023/03/30 11:01:18;;;;;;;16.90;2.78;;;;;;;;;;5049809;28;20045;-65
2023/03/30 11:03:46;;;;;;;18.92;3.25;;;;;;;;;;5049244;28;20430;-64
2023/03/30 11:06:19;;;;;;;16.13;2.70;;;;;;;;;;5044212;28;20080;-65
2023/03/30 11:08:50;;;;;;;15.68;2.47;;;;;;;;;;5041173;28;20047;-66
2023/03/30 11:11:23;;;;;;;15.77;2.80;;;;;;;;;;5048332;28;20072;-65
2023/03/30 11:14:02;;;;;;;21.90;3.70;;;;;;;;;;5031946;28;20045;-65
2023/03/30 11:16:44;;;;;;;19.58;3.08;;;;;;;;;;5049042;28;20045;-64
2023/03/30 11:19:30;;;;;;;14.38;3.00;;;;;;;;;;5038453;28;20453;-65
2023/03/30 11:22:04;;;;;;;18.75;2.88;;;;;;;;;;5035465;28;20052;-66
2023/03/30 11:24:30;;;;;;;17.85;3.00;;;;;;;;;;5046470;28;20261;-67
2023/03/30 11:27:15;;;;;;;21.50;4.07;;;;;;;;;;5049500;28;20124;-66
2023/03/30 11:30:00;;;;;;;27.23;3.78;;;;;;;;;;5052532;28;20052;-66
2023/03/30 11:32:31;;;;;;;18.73;3.60;;;;;;;;;;5052904;28;20094;-66
2023/03/30 11:35:10;;;;;;;19.83;3.20;;;;;;;;;;5052991;28;20401;-64
2023/03/30 11:37:42;;;;;;;25.60;3.83;;;;;;;;;;5048680;28;20048;-65
2023/03/30 11:40:10;;;;;;;15.10;3.08;;;;;;;;;;5047644;28;20033;-65
2023/03/30 11:42:36;;;;;;;11.98;2.83;;;;;;;;;;5052261;28;20107;-65
2023/03/30 11:45:12;;;;;;;21.85;3.67;;;;;;;;;;5052498;28;20483;-64
2023/03/30 11:47:48;;;;;;;20.95;3.25;;;;;;;;;;5051929;28;20029;-65
2023/03/30 11:50:37;;;;;;;24.48;3.92;;;;;;;;;;5052192;28;20037;-65
2023/03/30 11:53:18;;;;;;;21.00;3.38;;;;;;;;;;5047213;28;20511;-65
2023/03/30 11:55:51;;;;;;;21.05;3.60;;;;;;;;;;5051577;28;20039;-64
2023/03/30 11:58:20;;;;;;;15.30;3.97;;;;;;;;;;5053220;28;20037;-63
2023/03/30 12:01:05;;;;;;;16.95;3.72;;;;;;;;;;5051703;28;20020;-64
2023/03/30 12:03:49;;;;;;;19.05;3.95;;;;;;;;;;5051228;28;20102;-64
2023/03/30 12:06:15;;;;;;;19.58;3.42;;;;;;;;;;5053101;28;20041;-63
2023/03/30 12:09:00;;;;;;;18.40;3.45;;;;;;;;;;5052231;28;20163;-64
2023/03/30 12:11:37;;;;;;;16.92;3.00;;;;;;;;;;5052799;28;20041;-65
2023/03/30 12:14:09;;;;;;;20.45;4.18;;;;;;;;;;5052414;28;20105;-64
2023/03/30 12:16:45;;;;;;;24.08;4.50;;;;;;;;;;5048889;28;20102;-65
2023/03/30 12:19:11;;;;;;;26.83;4.45;;;;;;;;;;5051921;28;20051;-65
2023/03/30 12:21:51;;;;;;;28.20;4.38;;;;;;;;;;5052534;28;20102;-65
2023/03/30 12:24:28;;;;;;;23.85;3.55;;;;;;;;;;5011877;28;20101;-64
2023/03/30 12:26:55;;;;;;;22.77;3.00;;;;;;;;;;5012466;28;20623;-65
2023/03/30 12:29:21;;;;;;;24.83;3.65;;;;;;;;;;5012157;28;20045;-65
2023/03/30 12:32:01;;;;;;;18.88;3.90;;;;;;;;;;5011473;28;20057;-66
2023/03/30 12:34:28;;;;;;;22.80;4.47;;;;;;;;;;5012722;28;20465;-66
2023/03/30 12:36:55;;;;;;;24.77;4.00;;;;;;;;;;5011505;28;20492;-65
2023/03/30 12:39:31;;;;;;;22.73;3.42;;;;;;;;;;5009899;28;20042;-65
2023/03/30 12:42:04;;;;;;;21.55;3.72;;;;;;;;;;5009918;28;20039;-65
2023/03/30 12:44:42;;;;;;;20.67;3.35;;;;;;;;;;5007459;28;20627;-64
2023/03/30 12:47:17;;;;;;;25.30;3.72;;;;;;;;;;5009778;28;20045;-64
2023/03/30 12:50:19;;;;;;;23.77;4.00;;;;;;;;;;5010628;28;20042;-64
2023/03/30 12:52:58;;;;;;;21.42;4.30;;;;;;;;;;4968689;28;20042;-64
2023/03/30 12:55:27;;;;;;;22.65;4.20;;;;;;;;;;5006230;28;20136;-65
2023/03/30 12:58:02;;;;;;;25.80;4.50;;;;;;;;;;5011124;28;20045;-65
2023/03/30 13:00:36;;;;;;;22.73;3.95;;;;;;;;;;5010755;28;20080;-65
2023/03/30 13:03:05;;;;;;;23.85;3.95;;;;;;;;;;5011590;28;20104;-65
2023/03/30 13:05:33;;;;;;;19.55;3.42;;;;;;;;;;5011946;28;20033;-65
2023/03/30 13:08:17;;;;;;;22.23;3.53;;;;;;;;;;5011233;28;20121;-64
2023/03/30 13:10:43;;;;;;;21.25;4.38;;;;;;;;;;5011789;28;20041;-64
2023/03/30 13:13:35;;;;;;;20.13;3.55;;;;;;;;;;5011945;28;20050;-65
2023/03/30 13:16:01;;;;;;;22.42;3.55;;;;;;;;;;4995316;28;20086;-65
2023/03/30 13:18:27;;;;;;;25.48;3.78;;;;;;;;;;5011847;28;20499;-65
2023/03/30 13:21:03;;;;;;;21.30;3.55;;;;;;;;;;5011219;28;20112;-66
2023/03/30 13:23:36;;;;;;;16.52;3.50;;;;;;;;;;5039818;28;20075;-65
2023/03/30 13:26:06;;;;;;;20.38;3.53;;;;;;;;;;5051382;28;20138;-65
2023/03/30 13:28:50;;;;;;;29.02;4.00;;;;;;;;;;5051121;28;20522;-63
2023/03/30 13:31:19;;;;;;;19.20;3.65;;;;;;;;;;5050952;28;20049;-63
2023/03/30 13:33:48;;;;;;;18.67;3.53;;;;;;;;;;5051346;28;20052;-64
2023/03/30 13:36:15;;;;;;;22.17;3.35;;;;;;;;;;5051367;28;20386;-63
2023/03/30 13:38:56;;;;;;;20.48;3.63;;;;;;;;;;5030682;28;20038;-63
2023/03/30 13:41:29;;;;;;;19.42;3.70;;;;;;;;;;5040075;28;20600;-64
2023/03/30 13:43:58;;;;;;;19.42;3.65;;;;;;;;;;5049794;28;20427;-64
2023/03/30 13:46:43;;;;;;;21.60;4.18;;;;;;;;;;5050386;28;20060;-64
2023/03/30 13:49:21;;;;;;;21.77;3.53;;;;;;;;;;5050386;28;20045;-65
2023/03/30 13:51:48;;;;;;;22.60;4.38;;;;;;;;;;5050195;28;20101;-64
2023/03/30 13:54:14;;;;;;;19.60;4.05;;;;;;;;;;5050963;28;20048;-65
2023/03/30 13:56:43;;;;;;;17.13;4.00;;;;;;;;;;5051020;28;20126;-65
2023/03/30 13:59:13;;;;;;;19.13;3.75;;;;;;;;;;5050182;28;20072;-63
2023/03/30 14:01:39;;;;;;;23.73;4.20;;;;;;;;;;5050662;28;20045;-63
2023/03/30 14:04:09;;;;;;;26.38;4.30;;;;;;;;;;5049777;28;20123;-64
2023/03/30 14:06:42;;;;;;;20.75;4.18;;;;;;;;;;5050253;28;20040;-64
2023/03/30 14:09:09;;;;;;;21.30;3.70;;;;;;;;;;5050597;28;20041;-64
2023/03/30 14:11:38;;;;;;;22.27;3.42;;;;;;;;;;5050818;28;20128;-63
2023/03/30 14:14:05;;;;;;;22.45;3.63;;;;;;;;;;5050072;28;20868;-63
2023/03/30 14:16:33;;;;;;;25.00;4.25;;;;;;;;;;5050251;28;20040;-63
2023/03/30 14:19:11;;;;;;;28.88;4.60;;;;;;;;;;5050213;28;20115;-64
2023/03/30 14:21:38;;;;;;;23.52;5.50;;;;;;;;;;5050068;28;20091;-63
2023/03/30 14:24:04;;;;;;;22.73;4.20;;;;;;;;;;5050325;28;20517;-63
2023/03/30 14:26:30;;;;;;;17.23;3.33;;;;;;;;;;5050655;28;20036;-63
2023/03/30 14:29:02;;;;;;;20.25;3.60;;;;;;;;;;5050050;28;20041;-63
2023/03/30 14:31:36;;;;;;;18.80;2.95;;;;;;;;;;5050417;28;20048;-63
2023/03/30 14:34:04;;;;;;;18.08;3.95;;;;;;;;;;5050518;28;20045;-63
2023/03/30 14:36:30;;;;;;;18.25;3.45;;;;;;;;;;5049889;28;20044;-63
2023/03/30 14:38:57;;;;;;;23.38;3.50;;;;;;;;;;5050138;28;20041;-63
2023/03/30 14:41:26;;;;;;;24.70;3.60;;;;;;;;;;5050370;28;20045;-63
2023/03/30 14:43:56;;;;;;;17.83;3.45;;;;;;;;;;5049944;28;20076;-63
2023/03/30 14:46:24;;;;;;;19.45;3.92;;;;;;;;;;5050209;28;20033;-63
2023/03/30 14:48:50;;;;;;;23.85;4.25;;;;;;;;;;5050216;28;20072;-63